createdAt,value
2022-12-26T00:02:05.996Z,2.78
2022-12-26T00:04:51.045Z,3.25
2022-12-26T00:07:19.364Z,3.10
2022-12-26T00:09:45.978Z,3.60
2022-12-26T00:12:12.572Z,3.00
2022-12-26T00:14:39.195Z,3.30
2022-12-26T00:17:05.908Z,3.40
2022-12-26T00:19:32.444Z,3.88
2022-12-26T00:21:59.307Z,3.78
2022-12-26T00:24:25.859Z,2.88
2022-12-26T00:26:52.462Z,2.60
2022-12-26T00:29:19.224Z,2.88
2022-12-26T00:31:46.880Z,2.67
2022-12-26T00:34:13.661Z,3.15
2022-12-26T00:36:40.292Z,3.28
2022-12-26T00:39:08.376Z,3.55
2022-12-26T00:41:35.046Z,3.45
2022-12-26T00:44:01.723Z,4.35
2022-12-26T00:46:28.551Z,3.97
2022-12-26T00:48:55.267Z,4.05
2022-12-26T00:51:22.117Z,4.20
2022-12-26T00:53:48.717Z,3.70
2022-12-26T00:56:15.746Z,3.80
2022-12-26T00:58:42.353Z,3.80
2022-12-26T01:01:18.625Z,3.38
2022-12-26T01:03:46.520Z,3.40
2022-12-26T01:06:13.928Z,3.22
2022-12-26T01:08:40.965Z,3.75
2022-12-26T01:11:11.497Z,2.88
2022-12-26T01:13:38.636Z,3.55
2022-12-26T01:16:06.424Z,3.00
2022-12-26T01:18:34.373Z,3.03
2022-12-26T01:21:04.156Z,3.90
2022-12-26T01:23:30.879Z,3.40
2022-12-26T01:26:16.616Z,3.97
2022-12-26T01:28:44.116Z,3.42
2022-12-26T01:31:10.683Z,4.38
2022-12-26T01:33:37.396Z,3.53
2022-12-26T01:36:04.127Z,3.92
2022-12-26T01:38:30.655Z,4.32
2022-12-26T01:41:16.095Z,4.68
2022-12-26T01:44:00.156Z,5.03
2022-12-26T01:46:40.499Z,4.88
2022-12-26T01:49:15.781Z,5.15
2022-12-26T01:51:48.267Z,4.43
2022-12-26T01:54:38.251Z,4.13
2022-12-26T01:57:11.518Z,5.07
2022-12-26T01:59:41.136Z,5.25
2022-12-26T02:02:09.001Z,5.57
2022-12-26T02:05:00.368Z,5.70
2022-12-26T02:07:27.129Z,5.40
2022-12-26T02:09:54.465Z,5.30
2022-12-26T02:12:34.323Z,5.93
2022-12-26T02:15:07.358Z,5.18
2022-12-26T02:17:33.999Z,4.57
2022-12-26T02:20:20.895Z,4.43
2022-12-26T02:23:20.842Z,4.93
2022-12-26T02:25:56.432Z,4.15
2022-12-26T02:28:42.075Z,4.43
2022-12-26T02:31:32.030Z,3.55
2022-12-26T02:34:13.679Z,2.97
2022-12-26T02:36:56.879Z,3.70
2022-12-26T02:39:44.202Z,3.10
2022-12-26T02:42:46.536Z,3.38
2022-12-26T02:45:41.657Z,2.90
2022-12-26T02:48:11.267Z,3.22
2022-12-26T02:51:15.444Z,2.72
2022-12-26T02:54:37.111Z,2.55
2022-12-26T02:57:27.456Z,2.83
2022-12-26T03:00:42.359Z,2.50
2022-12-26T03:03:38.331Z,2.50
2022-12-26T03:06:43.310Z,2.28
2022-12-26T03:09:43.617Z,1.67
2022-12-26T03:12:38.670Z,1.80
2022-12-26T03:15:27.280Z,1.58
2022-12-26T03:18:00.701Z,1.92
2022-12-26T03:20:32.838Z,1.67
2022-12-26T03:23:13.675Z,1.35
2022-12-26T03:26:01.964Z,1.70
2022-12-26T03:28:29.069Z,2.45
2022-12-26T03:30:58.448Z,2.17
2022-12-26T03:33:52.890Z,1.70
2022-12-26T03:36:27.989Z,2.33
2022-12-26T03:39:15.084Z,1.90
2022-12-26T03:42:21.717Z,1.98
2022-12-26T03:45:14.581Z,1.90
2022-12-26T03:48:31.886Z,2.38
2022-12-26T03:54:41.294Z,2.38
2022-12-26T03:57:35.432Z,2.75
2022-12-26T04:00:26.857Z,3.17
2022-12-26T04:03:17.616Z,2.97
2022-12-26T04:06:05.798Z,3.10
2022-12-26T04:09:29.621Z,2.72
2022-12-26T04:12:18.714Z,3.15
2022-12-26T04:15:09.993Z,2.83
2022-12-26T04:18:08.039Z,3.03
2022-12-26T04:20:43.532Z,2.78
2022-12-26T04:26:36.293Z,2.00
2022-12-26T04:29:22.656Z,2.25
2022-12-26T04:32:34.205Z,2.45
2022-12-26T04:36:05.969Z,2.90
2022-12-26T04:38:56.995Z,4.03
2022-12-26T04:41:45.145Z,4.30
2022-12-26T04:44:13.313Z,4.85
2022-12-26T04:46:42.974Z,4.22
2022-12-26T04:49:31.268Z,4.25
2022-12-26T04:51:59.807Z,3.65
2022-12-26T04:54:27.469Z,3.50
2022-12-26T04:56:54.519Z,2.78
2022-12-26T04:59:22.559Z,3.17
2022-12-26T05:02:08.339Z,2.63
2022-12-26T05:04:53.883Z,2.65
2022-12-26T05:07:42.839Z,2.67
2022-12-26T05:10:26.868Z,2.67
2022-12-26T05:12:54.363Z,3.17
2022-12-26T05:15:21.243Z,2.83
2022-12-26T05:18:06.615Z,3.20
2022-12-26T05:20:51.937Z,2.83
2022-12-26T05:23:41.317Z,3.35
2022-12-26T05:26:39.852Z,2.90
2022-12-26T05:29:06.927Z,2.97
2022-12-26T05:31:36.486Z,2.80
2022-12-26T05:34:07.760Z,2.80
2022-12-26T05:36:37.208Z,2.67
2022-12-26T05:39:04.794Z,2.33
2022-12-26T05:41:31.889Z,3.05
2022-12-26T05:43:58.619Z,2.83
2022-12-26T05:46:25.476Z,2.50
2022-12-26T05:48:52.075Z,2.80
2022-12-26T05:51:18.763Z,3.00
2022-12-26T05:53:45.348Z,2.83
2022-12-26T05:56:14.008Z,2.78
2022-12-26T05:58:41.612Z,2.60
2022-12-26T06:01:14.220Z,2.97
2022-12-26T06:03:43.532Z,2.22
2022-12-26T06:06:10.920Z,2.22
2022-12-26T06:08:37.834Z,2.88
2022-12-26T06:11:06.390Z,2.80
2022-12-26T06:13:34.054Z,3.25
2022-12-26T06:16:10.892Z,3.15
2022-12-26T06:18:38.075Z,3.22
2022-12-26T06:21:10.604Z,2.88
2022-12-26T06:23:39.080Z,3.25
2022-12-26T06:26:07.759Z,2.75
2022-12-26T06:28:34.920Z,3.00
2022-12-26T06:31:06.879Z,3.50
2022-12-26T06:33:33.647Z,3.00
2022-12-26T06:36:08.411Z,2.85
2022-12-26T06:38:35.731Z,2.95
2022-12-26T06:41:05.340Z,2.40
2022-12-26T06:43:31.931Z,1.90
2022-12-26T06:45:59.650Z,2.05
2022-12-26T06:48:26.701Z,2.05
2022-12-26T06:50:56.286Z,1.80
2022-12-26T06:53:23.629Z,2.30
2022-12-26T06:55:51.031Z,1.75
2022-12-26T06:58:17.840Z,1.58
2022-12-26T07:00:44.396Z,2.10
2022-12-26T07:03:11.270Z,1.80
2022-12-26T07:05:38.568Z,1.52
2022-12-26T07:08:05.288Z,2.15
2022-12-26T07:10:36.366Z,2.15
2022-12-26T07:13:02.927Z,1.73
2022-12-26T07:15:29.508Z,2.42
2022-12-26T07:17:56.042Z,2.28
2022-12-26T07:20:22.539Z,1.80
2022-12-26T07:22:49.049Z,1.92
2022-12-26T07:25:15.681Z,2.13
2022-12-26T07:27:42.223Z,1.98
2022-12-26T07:30:09.284Z,2.00
2022-12-26T07:32:35.828Z,1.77
2022-12-26T07:35:02.407Z,1.80
2022-12-26T07:37:28.903Z,1.92
2022-12-26T07:39:59.097Z,2.05
2022-12-26T07:42:26.359Z,1.98
2022-12-26T07:44:52.863Z,1.70
2022-12-26T07:47:19.436Z,2.25
2022-12-26T07:49:45.990Z,1.45
2022-12-26T07:52:12.559Z,1.80
2022-12-26T07:54:39.131Z,1.52
2022-12-26T07:57:46.282Z,1.70
2022-12-26T07:59:53.787Z,1.45
2022-12-26T08:02:22.362Z,1.55
2022-12-26T08:04:49.075Z,1.17
2022-12-26T08:07:15.643Z,1.70
2022-12-26T08:09:44.762Z,1.40
2022-12-26T08:12:11.465Z,1.60
2022-12-26T08:14:38.181Z,1.73
2022-12-26T08:17:04.889Z,1.40
2022-12-26T08:19:31.858Z,1.15
2022-12-26T08:21:58.388Z,1.60
2022-12-26T08:24:24.958Z,1.85
2022-12-26T08:26:51.510Z,1.60
2022-12-26T08:29:18.081Z,1.40
2022-12-26T08:31:44.643Z,1.90
2022-12-26T08:34:11.526Z,1.40
2022-12-26T08:36:38.239Z,1.08
2022-12-26T08:39:05.166Z,1.70
2022-12-26T08:41:31.808Z,1.48
2022-12-26T08:46:45.923Z,1.48
2022-12-26T08:49:12.531Z,1.70
2022-12-26T08:51:39.222Z,1.42
2022-12-26T08:54:05.926Z,1.42
2022-12-26T08:56:33.263Z,1.65
2022-12-26T08:58:59.780Z,1.60
2022-12-26T09:01:29.870Z,1.17
2022-12-26T09:03:59.315Z,1.92
2022-12-26T09:06:26.397Z,1.15
2022-12-26T09:08:53.419Z,1.38
2022-12-26T09:11:22.765Z,1.33
2022-12-26T09:13:50.225Z,1.10
2022-12-26T09:16:32.704Z,1.50
2022-12-26T09:19:03.646Z,1.60
2022-12-26T09:21:30.857Z,1.02
2022-12-26T09:23:59.851Z,1.15
2022-12-26T09:26:28.340Z,1.42
2022-12-26T09:28:55.731Z,1.08
2022-12-26T09:31:25.677Z,0.70
2022-12-26T09:33:53.441Z,1.00
2022-12-26T09:36:22.859Z,1.05
2022-12-26T09:38:49.991Z,0.65
2022-12-26T09:41:25.805Z,0.80
2022-12-26T09:44:17.167Z,1.08
2022-12-26T09:46:46.736Z,0.93
2022-12-26T09:49:22.997Z,0.82
2022-12-26T09:51:55.151Z,0.70
2022-12-26T09:54:36.544Z,1.00
2022-12-26T09:57:14.829Z,0.70
2022-12-26T09:59:48.640Z,0.90
2022-12-26T10:02:23.856Z,0.90
2022-12-26T10:04:51.650Z,0.95
2022-12-26T10:07:47.304Z,0.90
2022-12-26T10:10:23.681Z,0.85
2022-12-26T10:13:04.491Z,0.90
2022-12-26T10:15:50.224Z,0.65
2022-12-26T10:18:23.728Z,0.70
2022-12-26T10:21:15.439Z,0.60
2022-12-26T10:23:51.516Z,0.75
2022-12-26T10:29:05.407Z,0.88
2022-12-26T10:31:37.201Z,0.85
2022-12-26T10:34:17.839Z,1.02
2022-12-26T10:36:49.428Z,0.43
2022-12-26T10:39:44.841Z,0.73
2022-12-26T10:42:24.429Z,0.73
2022-12-26T10:44:50.987Z,0.80
2022-12-26T10:47:38.677Z,0.70
2022-12-26T10:50:06.117Z,0.75
2022-12-26T10:52:42.946Z,0.77
2022-12-26T10:55:28.526Z,0.90
2022-12-26T10:58:03.084Z,1.00
2022-12-26T11:00:29.815Z,0.77
2022-12-26T11:03:08.987Z,0.90
2022-12-26T11:08:50.426Z,1.30
2022-12-26T11:14:01.721Z,1.60
2022-12-26T11:16:36.037Z,1.13
2022-12-26T11:19:02.948Z,1.55
2022-12-26T11:21:32.235Z,0.95
2022-12-26T11:24:07.861Z,1.00
2022-12-26T11:26:34.864Z,1.20
2022-12-26T11:29:13.013Z,0.63
2022-12-26T11:31:53.524Z,0.93
2022-12-26T11:34:46.089Z,0.95
2022-12-26T11:37:49.907Z,1.10
2022-12-26T11:40:26.598Z,1.00
2022-12-26T11:42:57.011Z,0.95
2022-12-26T11:45:29.354Z,0.93
2022-12-26T11:48:00.813Z,0.70
2022-12-26T11:50:30.133Z,0.80
2022-12-26T11:52:59.728Z,0.98
2022-12-26T11:55:37.927Z,1.25
2022-12-26T11:58:10.338Z,1.23
2022-12-26T12:01:00.771Z,0.70
2022-12-26T12:03:27.337Z,0.80
2022-12-26T12:06:15.806Z,0.95
2022-12-26T12:09:05.516Z,1.30
2022-12-26T12:12:01.850Z,0.77
2022-12-26T12:14:43.033Z,1.13
2022-12-26T12:17:18.618Z,1.08
2022-12-26T12:20:00.725Z,0.77
2022-12-26T12:22:56.793Z,1.02
2022-12-26T12:25:23.394Z,0.68
2022-12-26T12:28:08.118Z,0.82
2022-12-26T12:30:45.449Z,0.50
2022-12-26T12:33:26.449Z,0.73
2022-12-26T12:36:17.769Z,1.00
2022-12-26T12:39:11.146Z,0.88
2022-12-26T12:41:56.504Z,0.88
2022-12-26T12:44:44.653Z,0.90
2022-12-26T12:47:24.150Z,0.82
2022-12-26T12:50:00.425Z,1.13
2022-12-26T12:52:46.206Z,0.95
2022-12-26T12:55:34.885Z,1.05
2022-12-26T12:58:07.388Z,0.90
2022-12-26T13:01:05.151Z,1.15
2022-12-26T13:03:34.758Z,0.85
2022-12-26T13:06:08.695Z,0.70
2022-12-26T13:08:44.811Z,1.10
2022-12-26T13:11:33.154Z,1.02
2022-12-26T13:14:10.053Z,0.98
2022-12-26T13:16:45.010Z,1.02
2022-12-26T13:19:40.509Z,1.15
2022-12-26T13:22:15.367Z,1.05
2022-12-26T13:24:45.997Z,0.95
2022-12-26T13:27:18.402Z,1.25
2022-12-26T13:29:47.516Z,1.27
2022-12-26T13:32:26.221Z,1.00
2022-12-26T13:34:56.986Z,0.80
2022-12-26T13:37:39.010Z,1.13
2022-12-26T13:40:18.042Z,0.90
2022-12-26T13:43:25.588Z,1.60
2022-12-26T13:45:55.217Z,1.77
2022-12-26T13:48:21.775Z,1.17
2022-12-26T13:50:55.339Z,1.20
2022-12-26T13:53:25.936Z,1.53
2022-12-26T13:55:59.379Z,1.48
2022-12-26T13:58:31.962Z,1.25
2022-12-26T14:01:19.687Z,1.13
2022-12-26T14:03:51.399Z,1.00
2022-12-26T14:06:36.660Z,1.02
2022-12-26T14:09:21.435Z,1.13
2022-12-26T14:12:06.865Z,0.73
2022-12-26T14:15:01.767Z,1.23
2022-12-26T14:17:41.224Z,1.38
2022-12-26T14:20:23.183Z,1.17
2022-12-26T14:23:05.287Z,0.80
2022-12-26T14:26:05.508Z,0.80
2022-12-26T14:28:56.046Z,0.73
2022-12-26T14:31:47.656Z,0.85
2022-12-26T14:34:34.248Z,1.10
2022-12-26T14:37:10.031Z,0.75
2022-12-26T14:40:14.447Z,0.93
2022-12-26T14:43:12.492Z,0.88
2022-12-26T14:45:42.629Z,0.60
2022-12-26T14:48:15.358Z,1.38
2022-12-26T14:50:42.202Z,0.80
2022-12-26T14:53:30.187Z,1.00
2022-12-26T14:56:13.874Z,1.05
2022-12-26T14:58:42.092Z,1.30
2022-12-26T15:01:12.754Z,1.10
2022-12-26T15:03:44.505Z,0.55
2022-12-26T15:06:20.244Z,1.08
2022-12-26T15:09:20.459Z,1.30
2022-12-26T15:11:59.133Z,0.70
2022-12-26T15:14:44.123Z,0.82
2022-12-26T15:17:20.840Z,0.73
2022-12-26T15:20:12.532Z,1.05
2022-12-26T15:23:23.776Z,0.77
2022-12-26T15:26:15.181Z,0.73
2022-12-26T15:29:14.473Z,0.88
2022-12-26T15:31:40.964Z,0.70
2022-12-26T15:34:22.397Z,1.25
2022-12-26T15:37:00.359Z,1.02
2022-12-26T15:39:43.334Z,1.05
2022-12-26T15:42:24.082Z,1.10
2022-12-26T15:45:05.579Z,1.30
2022-12-26T15:47:44.642Z,1.27
2022-12-26T15:50:51.015Z,1.40
2022-12-26T15:53:53.292Z,0.60
2022-12-26T15:56:49.809Z,1.10
2022-12-26T16:00:13.618Z,0.77
2022-12-26T16:03:28.192Z,1.17
2022-12-26T16:06:05.645Z,1.13
2022-12-26T16:08:58.148Z,0.98
2022-12-26T16:11:47.795Z,1.35
2022-12-26T16:14:34.742Z,0.80
2022-12-26T16:17:18.761Z,1.25
2022-12-26T16:19:49.797Z,0.77
2022-12-26T16:22:43.588Z,1.70
2022-12-26T16:25:13.851Z,1.10
2022-12-26T16:27:41.546Z,1.00
2022-12-26T16:30:16.092Z,1.17
2022-12-26T16:32:44.359Z,1.17
2022-12-26T16:35:22.315Z,0.98
2022-12-26T16:37:52.694Z,1.52
2022-12-26T16:40:44.878Z,1.23
2022-12-26T16:43:17.554Z,0.90
2022-12-26T16:45:47.585Z,1.40
2022-12-26T16:48:16.973Z,1.52
2022-12-26T16:50:50.049Z,0.90
2022-12-26T16:53:22.572Z,0.98
2022-12-26T16:56:15.627Z,0.73
2022-12-26T16:58:42.343Z,0.80
2022-12-26T17:01:11.886Z,1.63
2022-12-26T17:03:55.464Z,0.63
2022-12-26T17:06:26.446Z,0.98
2022-12-26T17:08:55.727Z,1.10
2022-12-26T17:11:31.588Z,0.80
2022-12-26T17:14:00.090Z,0.70
2022-12-26T17:16:29.704Z,0.88
2022-12-26T17:19:09.471Z,0.95
2022-12-26T17:21:36.303Z,1.05
2022-12-26T17:24:19.504Z,0.80
2022-12-26T17:27:07.467Z,0.80
2022-12-26T17:29:47.784Z,1.30
2022-12-26T17:32:20.677Z,1.00
2022-12-26T17:34:47.458Z,1.00
2022-12-26T17:37:21.966Z,1.00
2022-12-26T17:40:05.153Z,1.05
2022-12-26T17:42:42.848Z,1.23
2022-12-26T17:45:15.722Z,1.10
2022-12-26T17:47:42.397Z,1.08
2022-12-26T17:50:09.096Z,0.93
2022-12-26T17:52:37.082Z,0.77
2022-12-26T17:55:11.952Z,1.15
2022-12-26T17:57:38.691Z,0.95
2022-12-26T18:00:23.540Z,1.15
2022-12-26T18:02:51.028Z,1.03
2022-12-26T18:05:19.330Z,0.80
2022-12-26T18:07:47.300Z,1.35
2022-12-26T18:10:20.199Z,0.73
2022-12-26T18:12:47.029Z,1.30
2022-12-26T18:15:14.241Z,1.05
2022-12-26T18:17:41.059Z,0.82
2022-12-26T18:20:08.407Z,1.08
2022-12-26T18:22:34.979Z,1.00
2022-12-26T18:25:01.531Z,0.65
2022-12-26T18:27:33.631Z,0.82
2022-12-26T18:30:00.965Z,1.40
2022-12-26T18:32:33.102Z,0.88
2022-12-26T18:35:00.350Z,0.98
2022-12-26T18:37:29.057Z,1.20
2022-12-26T18:39:55.739Z,0.77
2022-12-26T18:42:23.832Z,1.25
2022-12-26T18:44:50.529Z,1.33
2022-12-26T18:47:19.801Z,1.50
2022-12-26T18:49:47.301Z,1.13
2022-12-26T18:52:17.673Z,1.25
2022-12-26T18:54:45.100Z,1.02
2022-12-26T18:57:17.633Z,1.20
2022-12-26T18:59:44.404Z,1.30
2022-12-26T19:02:17.271Z,0.93
2022-12-26T19:04:44.339Z,1.10
2022-12-26T19:07:11.445Z,1.40
2022-12-26T19:09:38.076Z,0.98
2022-12-26T19:12:04.847Z,1.30
2022-12-26T19:14:31.420Z,1.10
2022-12-26T19:16:58.000Z,1.40
2022-12-26T19:19:26.565Z,0.93
2022-12-26T19:21:53.100Z,1.33
2022-12-26T19:24:19.683Z,1.58
2022-12-26T19:26:46.277Z,1.00
2022-12-26T19:29:13.164Z,1.15
2022-12-26T19:31:39.887Z,0.93
2022-12-26T19:34:06.586Z,1.20
2022-12-26T19:36:33.407Z,1.50
2022-12-26T19:39:00.102Z,1.23
2022-12-26T19:41:26.805Z,1.20
2022-12-26T19:43:58.432Z,1.42
2022-12-26T19:46:25.931Z,1.30
2022-12-26T19:48:53.112Z,1.58
2022-12-26T19:51:20.881Z,1.27
2022-12-26T19:53:48.472Z,1.60
2022-12-26T19:56:18.123Z,1.58
2022-12-26T19:58:45.034Z,1.80
2022-12-26T20:01:15.340Z,1.55
2022-12-26T20:03:42.703Z,1.30
2022-12-26T20:06:15.100Z,1.40
2022-12-26T20:08:42.811Z,1.40
2022-12-26T20:11:12.888Z,1.15
2022-12-26T20:13:40.993Z,1.20
2022-12-26T20:16:29.879Z,1.08
2022-12-26T20:18:56.367Z,1.40
2022-12-26T20:21:23.817Z,1.40
2022-12-26T20:23:50.619Z,1.30
2022-12-26T20:26:20.641Z,1.75
2022-12-26T20:28:47.577Z,1.60
2022-12-26T20:31:17.654Z,1.35
2022-12-26T20:33:46.222Z,3.08
2022-12-26T20:36:14.274Z,1.50
2022-12-26T20:38:42.032Z,2.30
2022-12-26T20:41:09.364Z,2.90
2022-12-26T20:43:36.279Z,2.08
2022-12-26T20:46:13.399Z,2.42
2022-12-26T20:48:40.673Z,2.33
2022-12-26T20:51:10.485Z,2.22
2022-12-26T20:53:37.286Z,2.50
2022-12-26T20:56:04.579Z,2.10
2022-12-26T20:58:34.303Z,2.88
2022-12-26T21:01:07.129Z,2.55
2022-12-26T21:03:35.349Z,2.28
2022-12-26T21:06:17.306Z,1.85
2022-12-26T21:08:45.683Z,2.35
2022-12-26T21:11:17.732Z,2.00
2022-12-26T21:13:47.105Z,1.70
2022-12-26T21:16:16.016Z,1.65
2022-12-26T21:18:43.221Z,1.95
2022-12-26T21:21:15.935Z,1.92
2022-12-26T21:23:43.144Z,1.95
2022-12-26T21:26:10.576Z,1.80
2022-12-26T21:28:37.251Z,1.35
2022-12-26T21:31:07.751Z,1.95
2022-12-26T21:33:39.095Z,1.63
2022-12-26T21:36:13.547Z,1.10
2022-12-26T21:38:40.935Z,1.63
2022-12-26T21:41:09.564Z,1.60
2022-12-26T21:43:36.436Z,1.92
2022-12-26T21:46:09.168Z,1.95
2022-12-26T21:48:36.383Z,1.77
2022-12-26T21:51:07.441Z,1.83
2022-12-26T21:53:34.903Z,2.00
2022-12-26T21:56:06.544Z,2.10
2022-12-26T21:58:52.833Z,2.00
2022-12-26T22:01:21.715Z,1.85
2022-12-26T22:04:07.397Z,1.80
2022-12-26T22:06:34.310Z,1.55
2022-12-26T22:09:01.633Z,1.42
2022-12-26T22:11:46.919Z,2.65
2022-12-26T22:14:13.773Z,1.30
2022-12-26T22:16:40.364Z,1.42
2022-12-26T22:19:07.646Z,1.80
2022-12-26T22:21:34.483Z,2.47
2022-12-26T22:24:01.359Z,1.23
2022-12-26T22:26:29.210Z,1.40
2022-12-26T22:28:57.383Z,1.63
2022-12-26T22:31:31.419Z,1.50
2022-12-26T22:34:01.094Z,1.02
2022-12-26T22:36:29.112Z,1.50
2022-12-26T22:38:55.959Z,1.90
2022-12-26T22:41:22.509Z,1.10
2022-12-26T22:43:49.072Z,1.70
2022-12-26T22:46:15.634Z,1.95
2022-12-26T22:48:42.272Z,1.35
2022-12-26T22:51:14.892Z,2.00
2022-12-26T22:53:42.238Z,1.02
2022-12-26T22:56:10.016Z,1.25
2022-12-26T22:58:36.575Z,1.65
2022-12-26T23:01:03.435Z,1.70
2022-12-26T23:03:30.065Z,1.45
2022-12-26T23:05:56.934Z,1.35
2022-12-26T23:08:26.437Z,1.02
2022-12-26T23:10:58.220Z,1.00
2022-12-26T23:13:25.445Z,1.13
2022-12-26T23:15:59.270Z,1.75
2022-12-26T23:18:58.843Z,1.00
2022-12-26T23:21:38.595Z,1.17
2022-12-26T23:24:23.233Z,1.13
2022-12-26T23:26:53.614Z,1.08
2022-12-26T23:29:41.498Z,1.90
2022-12-26T23:32:09.706Z,1.42
2022-12-26T23:34:36.707Z,1.25
2022-12-26T23:37:03.789Z,1.52
2022-12-26T23:39:30.361Z,1.33
2022-12-26T23:41:56.932Z,1.38
2022-12-26T23:44:23.432Z,1.70
2022-12-26T23:46:50.271Z,1.33
2022-12-26T23:49:16.933Z,1.52
2022-12-26T23:51:43.640Z,2.00
2022-12-26T23:54:10.663Z,2.25
2022-12-26T23:56:37.340Z,2.20
2022-12-26T23:59:05.174Z,2.08
